Time;durP1;ratioP1;P1;durP2;ratioP2;P2;SDS_P1;SDS_P2;PMS_P1;PMS_P2;Temp;Humidity;BMP_temperature;BMP_pressure;BME280_temperature;BME280_humidity;BME280_pressure;Samples;Min_cycle;Max_cycle;Signal;HPM_P1;HPM_P2
2024/02/29 00:01:31;;;;;;;;;;;4.00;99.90;;;;;;4951109;28;20327;-79
2024/02/29 00:03:57;;;;;;;;;;;3.90;99.90;;;;;;4951694;28;20338;-79
2024/02/29 00:06:23;;;;;;;;;;;3.90;99.90;;;;;;4978239;28;19925;-79
2024/02/29 00:08:49;;;;;;;;;;;3.90;99.90;;;;;;4977898;28;20323;-79
2024/02/29 00:11:15;;;;;;;;;;;3.80;99.90;;;;;;4993306;28;19914;-79
2024/02/29 00:13:40;;;;;;;;;;;3.70;99.90;;;;;;4993806;28;19948;-80
2024/02/29 00:16:07;;;;;;;;;;;3.70;99.90;;;;;;4978396;28;20628;-80
2024/02/29 00:18:33;;;;;;;;;;;3.70;99.90;;;;;;4962516;28;19985;-79
2024/02/29 00:20:59;;;;;;;;;;;3.70;99.90;;;;;;5003398;28;20495;-80
2024/02/29 00:23:25;;;;;;;;;;;3.70;99.90;;;;;;4943335;28;19922;-79
2024/02/29 00:25:53;;;;;;;;;;;3.70;99.90;;;;;;4952263;28;19917;-80
2024/02/29 00:28:22;;;;;;;;;;;3.70;99.90;;;;;;4939886;28;19960;-80
2024/02/29 00:30:47;;;;;;;;;;;3.70;99.90;;;;;;4946821;28;20009;-80
2024/02/29 00:33:15;;;;;;;;;;;3.70;99.90;;;;;;4939938;28;20013;-80
2024/02/29 00:35:41;;;;;;;;;;;3.70;99.90;;;;;;4933045;29;19993;-80
2024/02/29 00:38:06;;;;;;;;;;;3.70;99.90;;;;;;4934289;28;20009;-80
2024/02/29 00:40:32;;;;;;;;;;;3.60;99.90;;;;;;4947193;28;19993;-79
2024/02/29 00:42:58;;;;;;;;;;;3.60;99.90;;;;;;4947130;28;19914;-79
2024/02/29 00:45:24;;;;;;;;;;;3.50;99.90;;;;;;4930526;28;20343;-79
2024/02/29 00:47:51;;;;;;;;;;;3.50;99.90;;;;;;4958292;29;19915;-81
2024/02/29 00:50:16;;;;;;;;;;;3.40;99.90;;;;;;4951037;28;19918;-81
2024/02/29 00:52:42;;;;;;;;;;;3.40;99.90;;;;;;4951188;28;19915;-81
2024/02/29 00:55:11;;;;;;;;;;;3.40;99.90;;;;;;4933283;28;19948;-81
2024/02/29 00:57:37;;;;;;;;;;;3.40;99.90;;;;;;4962043;28;19918;-80
2024/02/29 01:00:06;;;;;;;;;;;3.30;99.90;;;;;;4961368;28;20001;-80
2024/02/29 01:02:32;;;;;;;;;;;3.30;99.90;;;;;;4976947;28;19956;-80
2024/02/29 01:04:58;;;;;;;;;;;3.20;99.90;;;;;;4976800;28;20343;-80
2024/02/29 01:07:24;;;;;;;;;;;3.20;99.90;;;;;;4950830;28;20714;-81
2024/02/29 01:09:49;;;;;;;;;;;3.20;99.90;;;;;;4945586;29;20001;-80
2024/02/29 01:12:15;;;;;;;;;;;3.20;99.90;;;;;;4935900;28;19956;-80
2024/02/29 01:14:41;;;;;;;;;;;3.10;99.90;;;;;;4927434;28;19981;-81
2024/02/29 01:17:07;;;;;;;;;;;3.10;99.90;;;;;;4967536;28;20001;-80
2024/02/29 01:19:32;;;;;;;;;;;3.10;99.90;;;;;;4956723;28;19917;-80
2024/02/29 01:21:59;;;;;;;;;;;3.00;99.90;;;;;;4945398;28;20283;-80
2024/02/29 01:24:24;;;;;;;;;;;3.00;99.90;;;;;;4944242;28;19968;-80
2024/02/29 01:26:50;;;;;;;;;;;3.10;99.90;;;;;;4949373;28;19922;-80
2024/02/29 01:29:16;;;;;;;;;;;3.00;99.90;;;;;;4951408;28;19918;-80
2024/02/29 01:31:41;;;;;;;;;;;3.10;99.90;;;;;;4960225;28;19922;-80
2024/02/29 01:34:07;;;;;;;;;;;3.10;99.90;;;;;;4927416;28;20377;-80
2024/02/29 01:36:33;;;;;;;;;;;3.10;99.90;;;;;;4951619;28;19929;-80
2024/02/29 01:38:59;;;;;;;;;;;3.10;99.90;;;;;;4939623;28;19918;-80
2024/02/29 01:41:24;;;;;;;;;;;3.10;99.90;;;;;;4945509;28;19922;-80
2024/02/29 01:43:51;;;;;;;;;;;3.10;99.90;;;;;;4960165;28;19922;-80
2024/02/29 01:46:17;;;;;;;;;;;3.20;99.90;;;;;;4961040;28;20001;-81
2024/02/29 01:48:43;;;;;;;;;;;3.10;99.90;;;;;;4961108;28;20008;-80
2024/02/29 01:51:09;;;;;;;;;;;3.10;99.90;;;;;;4960787;28;19929;-80
2024/02/29 01:53:35;;;;;;;;;;;3.00;99.90;;;;;;4966628;28;20025;-80
2024/02/29 01:56:01;;;;;;;;;;;3.10;99.90;;;;;;4961375;28;19997;-79
2024/02/29 01:58:26;;;;;;;;;;;3.10;99.90;;;;;;4977192;28;19948;-79
2024/02/29 02:00:52;;;;;;;;;;;3.10;99.90;;;;;;4960346;28;19941;-80
2024/02/29 02:03:18;;;;;;;;;;;3.10;99.90;;;;;;4976414;28;20328;-79
2024/02/29 02:05:44;;;;;;;;;;;3.10;99.90;;;;;;4944553;28;20224;-79
2024/02/29 02:08:10;;;;;;;;;;;3.10;99.90;;;;;;4977011;28;19982;-79
2024/02/29 02:10:36;;;;;;;;;;;3.00;99.90;;;;;;4959845;28;19914;-79
2024/02/29 02:13:02;;;;;;;;;;;3.00;99.90;;;;;;4961182;28;19918;-79
2024/02/29 02:15:28;;;;;;;;;;;3.00;99.90;;;;;;4974951;28;19923;-79
2024/02/29 02:17:54;;;;;;;;;;;3.00;99.90;;;;;;4941989;28;19929;-79
2024/02/29 02:20:21;;;;;;;;;;;3.00;99.90;;;;;;4940099;29;19922;-79
2024/02/29 02:22:46;;;;;;;;;;;2.90;99.90;;;;;;4951436;28;19933;-79
2024/02/29 02:25:13;;;;;;;;;;;2.90;99.90;;;;;;4944774;28;19929;-79
2024/02/29 02:27:41;;;;;;;;;;;2.90;99.90;;;;;;4944923;28;19914;-79
2024/02/29 02:30:07;;;;;;;;;;;2.90;99.90;;;;;;4942686;28;19974;-79
2024/02/29 02:32:33;;;;;;;;;;;2.90;99.90;;;;;;4944519;28;19922;-80
2024/02/29 02:34:59;;;;;;;;;;;2.90;99.90;;;;;;4925233;29;19922;-79
2024/02/29 02:37:25;;;;;;;;;;;2.90;99.90;;;;;;4938419;28;20327;-79
2024/02/29 02:39:51;;;;;;;;;;;2.90;99.90;;;;;;4943684;28;20697;-79
2024/02/29 02:42:16;;;;;;;;;;;2.90;99.90;;;;;;4939619;29;19915;-79
2024/02/29 02:44:42;;;;;;;;;;;2.90;99.90;;;;;;4957590;28;19927;-79
2024/02/29 02:47:08;;;;;;;;;;;2.90;99.90;;;;;;4941740;28;20390;-79
2024/02/29 02:49:34;;;;;;;;;;;2.90;99.90;;;;;;4959653;28;19918;-79
2024/02/29 02:52:00;;;;;;;;;;;2.90;99.90;;;;;;4944062;28;20037;-79
2024/02/29 02:54:25;;;;;;;;;;;3.00;99.90;;;;;;4942840;28;19918;-79
2024/02/29 02:56:51;;;;;;;;;;;3.00;99.90;;;;;;4944570;28;19922;-79
2024/02/29 02:59:17;;;;;;;;;;;3.00;99.90;;;;;;4959107;28;19918;-79
2024/02/29 03:01:44;;;;;;;;;;;2.90;99.90;;;;;;4942028;28;19918;-79
2024/02/29 03:04:09;;;;;;;;;;;3.00;99.90;;;;;;4943897;28;20227;-79
2024/02/29 03:06:35;;;;;;;;;;;3.00;99.90;;;;;;4942784;28;19921;-80
2024/02/29 03:09:04;;;;;;;;;;;3.00;99.90;;;;;;4959149;28;20028;-79
2024/02/29 03:11:30;;;;;;;;;;;2.90;99.90;;;;;;4940666;29;19925;-79
2024/02/29 03:13:57;;;;;;;;;;;2.90;99.90;;;;;;4929412;29;19926;-78
2024/02/29 03:16:23;;;;;;;;;;;2.90;99.90;;;;;;4946410;28;20232;-78
2024/02/29 03:18:49;;;;;;;;;;;2.90;99.90;;;;;;4925043;28;19940;-79
2024/02/29 03:21:15;;;;;;;;;;;3.00;99.90;;;;;;4975282;28;19914;-79
2024/02/29 03:23:40;;;;;;;;;;;3.00;99.90;;;;;;4973531;28;19992;-80
2024/02/29 03:26:06;;;;;;;;;;;3.00;99.90;;;;;;4960156;28;19957;-80
2024/02/29 03:28:32;;;;;;;;;;;3.00;99.90;;;;;;4939889;29;19953;-80
2024/02/29 03:31:00;;;;;;;;;;;3.00;99.90;;;;;;4940266;29;20434;-80
2024/02/29 03:33:26;;;;;;;;;;;3.00;99.90;;;;;;4924437;29;19914;-80
2024/02/29 03:35:51;;;;;;;;;;;3.00;99.90;;;;;;4925215;29;19969;-80
2024/02/29 03:38:17;;;;;;;;;;;3.00;99.90;;;;;;4951248;28;19918;-80
2024/02/29 03:40:44;;;;;;;;;;;3.00;99.90;;;;;;4944010;28;19914;-79
2024/02/29 03:43:10;;;;;;;;;;;3.00;99.90;;;;;;4979218;28;20345;-79
2024/02/29 03:45:35;;;;;;;;;;;3.00;99.90;;;;;;4979107;28;20008;-79
2024/02/29 03:48:01;;;;;;;;;;;3.00;99.90;;;;;;4963816;28;20549;-80
2024/02/29 03:50:27;;;;;;;;;;;3.00;99.90;;;;;;4974453;28;20227;-80
2024/02/29 03:52:53;;;;;;;;;;;2.90;99.90;;;;;;4962330;28;19928;-79
2024/02/29 03:55:18;;;;;;;;;;;2.90;99.90;;;;;;4964325;28;19922;-80
2024/02/29 03:57:44;;;;;;;;;;;2.90;99.90;;;;;;4957845;28;20585;-79
2024/02/29 04:00:11;;;;;;;;;;;2.90;99.90;;;;;;4975387;28;19914;-79
2024/02/29 04:02:40;;;;;;;;;;;3.00;99.90;;;;;;4967012;28;19918;-80
2024/02/29 04:05:06;;;;;;;;;;;2.90;99.90;;;;;;4962718;28;19943;-80
2024/02/29 04:07:31;;;;;;;;;;;2.90;99.90;;;;;;4944594;28;19918;-79
2024/02/29 04:09:57;;;;;;;;;;;3.00;99.90;;;;;;4994407;28;20061;-79
2024/02/29 04:12:23;;;;;;;;;;;2.90;99.90;;;;;;4976867;28;19987;-79
2024/02/29 04:14:49;;;;;;;;;;;2.90;99.90;;;;;;4978278;28;20013;-79
2024/02/29 04:17:14;;;;;;;;;;;2.90;99.90;;;;;;4977943;28;19952;-79
2024/02/29 04:19:43;;;;;;;;;;;3.00;99.90;;;;;;4958694;28;20306;-79
2024/02/29 04:22:09;;;;;;;;;;;3.00;99.90;;;;;;4947714;28;19930;-78
2024/02/29 04:24:34;;;;;;;;;;;2.90;99.90;;;;;;4942457;28;20639;-79
2024/02/29 04:27:00;;;;;;;;;;;3.00;99.90;;;;;;4943096;28;20334;-80
2024/02/29 04:29:26;;;;;;;;;;;3.00;99.90;;;;;;4961443;28;20339;-78
2024/02/29 04:31:51;;;;;;;;;;;3.00;99.90;;;;;;4954987;28;19918;-79
2024/02/29 04:34:17;;;;;;;;;;;3.00;99.90;;;;;;4942606;28;19965;-79
2024/02/29 04:36:43;;;;;;;;;;;3.10;99.90;;;;;;4962146;28;19929;-79
2024/02/29 04:39:08;;;;;;;;;;;3.10;99.90;;;;;;4923801;28;20239;-79
2024/02/29 04:41:34;;;;;;;;;;;3.10;99.90;;;;;;4958326;28;19956;-79
2024/02/29 04:44:00;;;;;;;;;;;3.10;99.90;;;;;;4974389;28;19978;-79
2024/02/29 04:46:25;;;;;;;;;;;3.10;99.90;;;;;;4942427;28;20414;-79
2024/02/29 04:48:51;;;;;;;;;;;3.10;99.90;;;;;;4931480;29;19914;-79
2024/02/29 04:51:17;;;;;;;;;;;3.10;99.90;;;;;;4907463;29;19915;-79
2024/02/29 04:53:42;;;;;;;;;;;3.20;99.90;;;;;;4958330;28;19918;-79
2024/02/29 04:56:10;;;;;;;;;;;3.20;99.90;;;;;;4942592;28;19918;-79
2024/02/29 04:58:36;;;;;;;;;;;3.20;99.90;;;;;;4958812;28;20341;-79
2024/02/29 05:01:03;;;;;;;;;;;3.20;99.90;;;;;;4942608;28;19929;-78
2024/02/29 05:03:29;;;;;;;;;;;3.20;99.90;;;;;;4942804;28;19914;-79
2024/02/29 05:05:55;;;;;;;;;;;3.20;99.90;;;;;;4958785;28;19997;-79
2024/02/29 05:08:23;;;;;;;;;;;3.20;99.90;;;;;;4940894;29;20009;-80
2024/02/29 05:10:49;;;;;;;;;;;3.20;99.90;;;;;;4961782;28;20004;-79
2024/02/29 05:13:15;;;;;;;;;;;3.20;99.90;;;;;;4947320;28;20005;-80
2024/02/29 05:15:44;;;;;;;;;;;3.30;99.90;;;;;;4945872;28;19957;-80
2024/02/29 05:18:09;;;;;;;;;;;3.30;99.90;;;;;;4944840;28;20000;-79
2024/02/29 05:20:35;;;;;;;;;;;3.30;99.90;;;;;;4926438;29;20074;-79
2024/02/29 05:23:01;;;;;;;;;;;3.30;99.90;;;;;;4943582;28;19933;-78
2024/02/29 05:25:28;;;;;;;;;;;3.30;99.90;;;;;;4961623;28;19914;-79
2024/02/29 05:27:54;;;;;;;;;;;3.30;99.90;;;;;;4948381;28;19917;-78
2024/02/29 05:30:20;;;;;;;;;;;3.40;99.90;;;;;;4957454;29;20332;-78
2024/02/29 05:32:48;;;;;;;;;;;3.40;99.90;;;;;;4932071;28;19922;-78
2024/02/29 05:35:14;;;;;;;;;;;3.40;99.90;;;;;;4938474;28;19933;-78
2024/02/29 05:37:40;;;;;;;;;;;3.40;99.90;;;;;;4945645;28;19918;-78
2024/02/29 05:40:06;;;;;;;;;;;3.40;99.90;;;;;;4933299;28;19922;-78
2024/02/29 05:42:31;;;;;;;;;;;3.40;99.90;;;;;;4950611;28;19980;-79
2024/02/29 05:44:57;;;;;;;;;;;3.40;99.90;;;;;;4964258;28;19913;-79
2024/02/29 05:47:23;;;;;;;;;;;3.40;99.90;;;;;;4980629;28;19913;-79
2024/02/29 05:49:49;;;;;;;;;;;3.50;99.90;;;;;;4929536;28;19992;-78
2024/02/29 05:52:17;;;;;;;;;;;3.40;99.90;;;;;;4961255;28;19925;-79
2024/02/29 05:54:43;;;;;;;;;;;3.40;99.90;;;;;;4948289;28;20024;-79
2024/02/29 05:57:09;;;;;;;;;;;3.40;99.90;;;;;;4953720;28;19933;-80
2024/02/29 05:59:34;;;;;;;;;;;3.40;99.90;;;;;;4945076;28;19918;-79
2024/02/29 06:02:00;;;;;;;;;;;3.40;99.90;;;;;;4944681;28;19944;-79
2024/02/29 06:04:26;;;;;;;;;;;3.50;99.90;;;;;;4945569;28;19956;-78
2024/02/29 06:06:51;;;;;;;;;;;3.50;99.90;;;;;;4961137;28;19922;-79
2024/02/29 06:09:17;;;;;;;;;;;3.40;99.90;;;;;;4977022;28;20707;-79
2024/02/29 06:11:43;;;;;;;;;;;3.40;99.90;;;;;;4962070;28;20322;-79
2024/02/29 06:14:09;;;;;;;;;;;3.40;99.90;;;;;;4965828;28;19902;-81
2024/02/29 06:16:34;;;;;;;;;;;3.40;99.90;;;;;;4953556;28;19984;-79
2024/02/29 06:19:00;;;;;;;;;;;3.30;99.90;;;;;;4926247;29;19918;-79
2024/02/29 06:21:26;;;;;;;;;;;3.30;99.90;;;;;;4929733;28;20258;-79
2024/02/29 06:23:53;;;;;;;;;;;3.30;99.90;;;;;;4940479;28;19925;-79
2024/02/29 06:26:19;;;;;;;;;;;3.30;99.90;;;;;;4982659;28;19913;-79
2024/02/29 06:28:44;;;;;;;;;;;3.30;99.90;;;;;;4948114;28;19914;-79
2024/02/29 06:31:12;;;;;;;;;;;3.30;99.90;;;;;;4983326;28;19936;-81
2024/02/29 06:33:38;;;;;;;;;;;3.30;99.90;;;;;;4941886;28;20012;-80
2024/02/29 06:36:04;;;;;;;;;;;3.30;99.90;;;;;;4964375;28;20000;-80
2024/02/29 06:38:30;;;;;;;;;;;3.30;99.90;;;;;;4961006;28;19925;-79
2024/02/29 06:40:55;;;;;;;;;;;3.30;99.90;;;;;;4970318;28;19914;-79
2024/02/29 06:43:21;;;;;;;;;;;3.30;99.90;;;;;;4970632;28;19926;-79
2024/02/29 06:45:47;;;;;;;;;;;3.40;99.90;;;;;;4940344;28;19917;-80
2024/02/29 06:48:14;;;;;;;;;;;3.30;99.90;;;;;;4976069;28;19989;-80
2024/02/29 06:50:40;;;;;;;;;;;3.40;99.90;;;;;;4975627;28;19918;-79
2024/02/29 06:53:05;;;;;;;;;;;3.40;99.90;;;;;;4961834;28;20394;-80
2024/02/29 06:55:31;;;;;;;;;;;3.40;99.90;;;;;;4974218;28;19922;-79
2024/02/29 06:57:58;;;;;;;;;;;3.40;99.90;;;;;;4972876;28;19914;-80
2024/02/29 07:00:24;;;;;;;;;;;3.50;99.90;;;;;;4978946;28;19924;-79
2024/02/29 07:02:50;;;;;;;;;;;3.60;99.90;;;;;;4977237;28;19964;-79
2024/02/29 07:05:16;;;;;;;;;;;3.60;99.90;;;;;;4969166;28;19918;-78
2024/02/29 07:07:45;;;;;;;;;;;3.60;99.90;;;;;;4927059;28;19928;-78
2024/02/29 07:10:11;;;;;;;;;;;3.70;99.90;;;;;;4956186;28;19941;-79
2024/02/29 07:12:37;;;;;;;;;;;3.80;99.90;;;;;;4995161;28;20323;-79
2024/02/29 07:15:03;;;;;;;;;;;3.90;99.90;;;;;;4978403;28;19921;-79
2024/02/29 07:17:29;;;;;;;;;;;3.90;99.90;;;;;;4994568;28;19918;-79
2024/02/29 07:19:55;;;;;;;;;;;3.90;99.90;;;;;;4987813;28;19914;-78
2024/02/29 07:22:21;;;;;;;;;;;4.00;99.90;;;;;;4994851;28;20345;-78
2024/02/29 07:24:47;;;;;;;;;;;4.00;99.90;;;;;;4962727;28;19913;-79
2024/02/29 07:27:15;;;;;;;;;;;4.10;99.90;;;;;;4978299;28;19917;-78
2024/02/29 07:29:41;;;;;;;;;;;4.10;99.90;;;;;;4967404;28;19914;-78
2024/02/29 07:32:06;;;;;;;;;;;4.20;99.90;;;;;;4977006;28;20315;-79
2024/02/29 07:34:34;;;;;;;;;;;4.20;99.90;;;;;;4967079;28;20355;-79
2024/02/29 07:36:59;;;;;;;;;;;4.20;99.90;;;;;;4972453;28;19963;-78
2024/02/29 07:39:25;;;;;;;;;;;4.30;99.90;;;;;;4956127;28;19965;-80
2024/02/29 07:41:51;;;;;;;;;;;4.30;99.90;;;;;;4961056;28;19914;-79
2024/02/29 07:44:16;;;;;;;;;;;4.40;99.90;;;;;;4978440;28;19914;-79
2024/02/29 07:46:42;;;;;;;;;;;4.40;99.90;;;;;;4978126;28;19918;-79
2024/02/29 07:49:08;;;;;;;;;;;4.50;99.90;;;;;;4978673;28;19976;-79
2024/02/29 07:51:34;;;;;;;;;;;4.50;99.90;;;;;;4969467;28;19918;-79
2024/02/29 07:54:01;;;;;;;;;;;4.60;99.90;;;;;;4971019;28;19929;-79
2024/02/29 07:56:26;;;;;;;;;;;4.60;99.90;;;;;;4978156;28;19961;-78
2024/02/29 07:58:52;;;;;;;;;;;4.70;99.90;;;;;;4994521;28;20003;-77
2024/02/29 08:01:18;;;;;;;;;;;4.70;99.90;;;;;;4976414;28;20498;-77
2024/02/29 08:03:44;;;;;;;;;;;4.80;99.90;;;;;;4990263;28;19929;-79
2024/02/29 08:06:10;;;;;;;;;;;4.80;99.90;;;;;;4945214;28;19954;-78
2024/02/29 08:08:36;;;;;;;;;;;4.90;99.90;;;;;;4951421;28;19969;-78
2024/02/29 08:11:02;;;;;;;;;;;4.90;99.90;;;;;;4961153;28;20204;-79
2024/02/29 08:13:29;;;;;;;;;;;4.90;99.90;;;;;;4978946;28;19929;-77
2024/02/29 08:15:55;;;;;;;;;;;5.00;99.90;;;;;;4993969;28;19922;-78
2024/02/29 08:18:20;;;;;;;;;;;5.10;99.90;;;;;;4961300;28;19917;-78
2024/02/29 08:20:46;;;;;;;;;;;5.20;99.90;;;;;;4956595;28;20578;-77
2024/02/29 08:23:13;;;;;;;;;;;5.30;99.90;;;;;;4962317;28;20016;-78
2024/02/29 08:25:40;;;;;;;;;;;5.40;99.90;;;;;;4942343;28;19925;-78
2024/02/29 08:28:05;;;;;;;;;;;5.50;99.90;;;;;;4956154;28;19926;-77
2024/02/29 08:30:31;;;;;;;;;;;5.50;99.90;;;;;;4942908;28;20044;-77
2024/02/29 08:32:58;;;;;;;;;;;5.60;99.90;;;;;;4958939;28;19918;-77
2024/02/29 08:35:24;;;;;;;;;;;5.70;99.90;;;;;;4935149;28;20643;-78
2024/02/29 08:37:50;;;;;;;;;;;5.80;99.90;;;;;;4942328;28;19921;-77
2024/02/29 08:40:16;;;;;;;;;;;5.90;99.90;;;;;;4958739;28;19921;-77
2024/02/29 08:42:41;;;;;;;;;;;5.90;99.90;;;;;;4960100;28;19914;-77
2024/02/29 08:45:08;;;;;;;;;;;6.00;99.90;;;;;;4962309;28;19914;-77
2024/02/29 08:47:34;;;;;;;;;;;6.10;99.90;;;;;;4981784;28;19913;-78
2024/02/29 08:50:00;;;;;;;;;;;6.20;99.90;;;;;;4965631;28;19913;-78
2024/02/29 08:52:26;;;;;;;;;;;6.30;99.90;;;;;;4949173;28;19964;-77
2024/02/29 08:54:51;;;;;;;;;;;6.40;99.90;;;;;;4964676;28;19950;-77
2024/02/29 08:57:17;;;;;;;;;;;6.50;99.90;;;;;;4930381;28;19945;-78
2024/02/29 08:59:43;;;;;;;;;;;6.60;99.90;;;;;;4945906;28;19949;-78
2024/02/29 09:02:09;;;;;;;;;;;6.60;99.90;;;;;;4941591;29;19918;-77
2024/02/29 09:04:35;;;;;;;;;;;6.70;99.90;;;;;;4958387;28;19973;-76
2024/02/29 09:07:01;;;;;;;;;;;6.80;99.90;;;;;;4927739;29;19924;-77
2024/02/29 09:09:30;;;;;;;;;;;6.90;99.90;;;;;;4949796;28;19922;-77
2024/02/29 09:11:56;;;;;;;;;;;7.00;99.90;;;;;;4977602;28;20006;-77
2024/02/29 09:14:21;;;;;;;;;;;7.00;99.90;;;;;;4960884;28;19977;-77
2024/02/29 09:16:47;;;;;;;;;;;7.10;99.90;;;;;;4960769;28;19918;-77
2024/02/29 09:19:13;;;;;;;;;;;7.20;99.90;;;;;;4929017;28;19920;-77
2024/02/29 09:21:39;;;;;;;;;;;7.30;99.90;;;;;;4947607;28;19914;-77
2024/02/29 09:24:05;;;;;;;;;;;7.30;99.90;;;;;;4980598;28;19922;-77
2024/02/29 09:26:32;;;;;;;;;;;7.30;99.90;;;;;;4981694;28;19918;-79
2024/02/29 09:28:58;;;;;;;;;;;7.30;99.90;;;;;;4949873;28;19962;-79
2024/02/29 09:31:24;;;;;;;;;;;7.30;99.90;;;;;;4948637;28;19917;-79
2024/02/29 09:33:49;;;;;;;;;;;7.30;99.90;;;;;;4945553;28;19967;-80
2024/02/29 09:36:15;;;;;;;;;;;7.30;99.90;;;;;;4962281;28;20081;-79
2024/02/29 09:38:41;;;;;;;;;;;7.40;99.90;;;;;;4944385;28;20624;-79
2024/02/29 09:41:10;;;;;;;;;;;7.40;99.90;;;;;;4946767;28;19918;-79
2024/02/29 09:43:36;;;;;;;;;;;7.50;99.90;;;;;;4953525;28;19921;-79
2024/02/29 09:46:02;;;;;;;;;;;7.50;99.90;;;;;;4962201;28;19922;-80
2024/02/29 09:48:29;;;;;;;;;;;7.60;99.90;;;;;;4961585;28;19914;-77
2024/02/29 09:51:04;;;;;;;;;;;7.70;99.90;;;;;;4964437;28;19918;-78
2024/02/29 09:53:30;;;;;;;;;;;7.70;99.90;;;;;;4964104;28;20419;-79
2024/02/29 09:55:56;;;;;;;;;;;7.90;99.90;;;;;;4948699;28;19917;-79
2024/02/29 09:58:22;;;;;;;;;;;7.90;99.90;;;;;;4980125;28;19976;-78
2024/02/29 10:00:48;;;;;;;;;;;8.00;99.90;;;;;;4948433;28;19921;-79
2024/02/29 10:03:19;;;;;;;;;;;8.10;99.90;;;;;;4969782;28;19918;-79
2024/02/29 10:05:45;;;;;;;;;;;8.20;99.90;;;;;;4961741;28;19968;-79
2024/02/29 10:08:11;;;;;;;;;;;8.20;99.90;;;;;;4995590;28;19914;-79
2024/02/29 10:10:37;;;;;;;;;;;8.40;99.90;;;;;;4977310;28;20005;-79
2024/02/29 10:13:03;;;;;;;;;;;8.40;99.90;;;;;;4975407;28;20000;-79
2024/02/29 10:15:28;;;;;;;;;;;8.50;99.90;;;;;;4979837;28;19945;-79
2024/02/29 10:17:57;;;;;;;;;;;8.60;99.90;;;;;;4977119;28;19918;-79
2024/02/29 10:20:23;;;;;;;;;;;8.70;99.90;;;;;;4943316;28;20036;-79
2024/02/29 10:22:51;;;;;;;;;;;8.80;99.90;;;;;;4948947;28;19923;-79
2024/02/29 10:25:17;;;;;;;;;;;8.90;99.90;;;;;;4955695;28;19918;-79
2024/02/29 10:27:42;;;;;;;;;;;9.00;99.90;;;;;;4941489;28;19977;-79
2024/02/29 10:30:12;;;;;;;;;;;9.10;99.90;;;;;;4952884;28;19914;-79
2024/02/29 10:32:38;;;;;;;;;;;9.30;99.90;;;;;;4948314;28;19914;-79
2024/02/29 10:35:16;;;;;;;;;;;9.40;99.90;;;;;;4946248;28;20687;-79
2024/02/29 10:37:43;;;;;;;;;;;9.50;99.90;;;;;;4961400;28;20346;-79
2024/02/29 10:40:09;;;;;;;;;;;9.60;99.90;;;;;;4971335;28;19965;-79
2024/02/29 10:42:35;;;;;;;;;;;9.80;99.90;;;;;;4945039;28;19981;-79
2024/02/29 10:45:01;;;;;;;;;;;10.00;99.90;;;;;;4929728;28;19918;-79
2024/02/29 10:47:27;;;;;;;;;;;10.10;99.90;;;;;;4941841;29;20375;-79
2024/02/29 10:49:53;;;;;;;;;;;10.20;99.90;;;;;;4941345;29;19933;-79
2024/02/29 10:52:20;;;;;;;;;;;10.40;99.90;;;;;;4952909;28;19918;-79
2024/02/29 10:54:55;;;;;;;;;;;10.60;99.90;;;;;;4943810;28;19992;-79
2024/02/29 10:57:22;;;;;;;;;;;10.80;99.90;;;;;;4957719;28;20371;-79
2024/02/29 10:59:58;;;;;;;;;;;11.00;99.90;;;;;;4960204;28;19968;-79
2024/02/29 11:02:24;;;;;;;;;;;11.10;99.90;;;;;;4960062;28;20366;-79
2024/02/29 11:04:49;;;;;;;;;;;11.30;99.90;;;;;;4939944;28;19976;-79
2024/02/29 11:07:15;;;;;;;;;;;11.60;99.90;;;;;;4973931;28;19914;-79
2024/02/29 11:09:40;;;;;;;;;;;11.80;99.90;;;;;;4941784;28;20529;-79
2024/02/29 11:12:08;;;;;;;;;;;12.20;99.90;;;;;;4952865;28;19914;-79
2024/02/29 11:14:35;;;;;;;;;;;12.40;99.90;;;;;;4927307;28;19926;-80
2024/02/29 11:17:01;;;;;;;;;;;12.70;99.90;;;;;;4933024;28;19921;-80
2024/02/29 11:19:27;;;;;;;;;;;12.90;99.90;;;;;;4957536;28;20000;-80
2024/02/29 11:21:53;;;;;;;;;;;13.00;99.90;;;;;;4935502;28;19958;-79
2024/02/29 11:24:22;;;;;;;;;;;13.40;99.90;;;;;;4977116;28;19925;-79
2024/02/29 11:26:54;;;;;;;;;;;13.40;99.90;;;;;;4978886;28;20251;-79
2024/02/29 11:29:20;;;;;;;;;;;13.30;99.90;;;;;;4973033;28;19918;-80
2024/02/29 11:31:50;;;;;;;;;;;13.40;99.90;;;;;;4959201;28;20216;-79
2024/02/29 11:34:22;;;;;;;;;;;13.60;99.90;;;;;;4966175;28;19969;-79
2024/02/29 11:36:48;;;;;;;;;;;13.60;99.90;;;;;;4960218;28;19954;-80
2024/02/29 11:39:14;;;;;;;;;;;13.80;99.90;;;;;;4971981;28;19920;-79
2024/02/29 11:41:40;;;;;;;;;;;13.80;99.90;;;;;;4966119;28;19973;-79
2024/02/29 11:44:06;;;;;;;;;;;13.90;99.40;;;;;;4965673;28;20684;-80
2024/02/29 11:46:32;;;;;;;;;;;13.70;98.60;;;;;;4968372;28;20018;-81
2024/02/29 11:48:58;;;;;;;;;;;13.80;99.80;;;;;;4973799;28;19969;-81
2024/02/29 11:51:25;;;;;;;;;;;14.00;98.70;;;;;;4943851;28;19922;-79
2024/02/29 11:53:53;;;;;;;;;;;13.80;98.40;;;;;;4952057;28;19925;-81
2024/02/29 11:56:19;;;;;;;;;;;14.00;98.30;;;;;;4969151;28;19969;-80
2024/02/29 11:58:45;;;;;;;;;;;14.10;97.00;;;;;;4969193;28;20564;-81
2024/02/29 12:01:12;;;;;;;;;;;14.10;95.50;;;;;;4961996;28;19913;-81
2024/02/29 12:03:38;;;;;;;;;;;14.20;96.70;;;;;;4961036;28;19922;-80
2024/02/29 12:06:03;;;;;;;;;;;14.30;97.00;;;;;;4956816;28;19932;-81
2024/02/29 12:08:30;;;;;;;;;;;14.30;97.40;;;;;;4958512;28;20315;-82
2024/02/29 12:10:59;;;;;;;;;;;14.30;97.40;;;;;;4979123;28;19922;-82
2024/02/29 12:13:26;;;;;;;;;;;14.40;98.00;;;;;;4980108;28;19918;-81
2024/02/29 12:15:54;;;;;;;;;;;14.50;97.40;;;;;;4964636;28;19921;-82
2024/02/29 12:18:20;;;;;;;;;;;14.40;95.70;;;;;;4971626;28;20360;-81
2024/02/29 12:20:46;;;;;;;;;;;14.50;96.40;;;;;;4978204;28;19920;-81
2024/02/29 12:23:15;;;;;;;;;;;14.50;96.70;;;;;;5002779;28;19918;-81
2024/02/29 12:25:44;;;;;;;;;;;15.00;96.30;;;;;;4953368;28;19918;-82
2024/02/29 12:28:09;;;;;;;;;;;15.10;95.30;;;;;;4947984;28;19925;-82
2024/02/29 12:30:35;;;;;;;;;;;15.20;94.60;;;;;;4983494;28;19921;-81
2024/02/29 12:33:01;;;;;;;;;;;15.00;94.50;;;;;;4965733;28;19913;-80
2024/02/29 12:35:28;;;;;;;;;;;15.30;95.10;;;;;;4967301;28;19936;-80
2024/02/29 12:37:55;;;;;;;;;;;15.20;93.50;;;;;;4967559;28;19914;-80
2024/02/29 12:40:21;;;;;;;;;;;15.40;93.40;;;;;;4952169;28;20444;-81
2024/02/29 12:42:46;;;;;;;;;;;15.50;93.90;;;;;;4964671;28;19918;-81
2024/02/29 12:45:12;;;;;;;;;;;16.00;92.40;;;;;;4978851;28;19922;-80
2024/02/29 12:47:38;;;;;;;;;;;16.70;93.30;;;;;;4971401;28;19926;-81
2024/02/29 12:50:05;;;;;;;;;;;17.00;89.30;;;;;;4971506;28;20409;-81
2024/02/29 12:52:30;;;;;;;;;;;16.90;88.00;;;;;;4981907;28;19925;-80
2024/02/29 12:54:56;;;;;;;;;;;16.70;89.10;;;;;;4963689;28;19922;-81
2024/02/29 12:57:21;;;;;;;;;;;16.40;88.50;;;;;;4968543;28;19940;-81
2024/02/29 12:59:47;;;;;;;;;;;16.40;90.20;;;;;;4967558;28;19913;-82
2024/02/29 13:02:13;;;;;;;;;;;16.50;90.60;;;;;;4966856;28;20000;-81
2024/02/29 13:04:38;;;;;;;;;;;17.10;89.40;;;;;;4983312;28;20012;-81
2024/02/29 13:07:04;;;;;;;;;;;17.10;89.80;;;;;;4982851;28;19913;-82
2024/02/29 13:09:30;;;;;;;;;;;17.20;88.90;;;;;;4977518;28;20342;-83
2024/02/29 13:11:55;;;;;;;;;;;17.00;84.30;;;;;;4983395;28;19922;-81
2024/02/29 13:14:21;;;;;;;;;;;17.10;84.70;;;;;;4967370;28;19918;-81
2024/02/29 13:16:47;;;;;;;;;;;17.10;84.30;;;;;;4983483;28;20296;-81
2024/02/29 13:19:14;;;;;;;;;;;17.80;84.20;;;;;;4992433;28;20375;-79
2024/02/29 13:21:41;;;;;;;;;;;17.80;81.20;;;;;;4949156;28;20684;-82
2024/02/29 13:24:09;;;;;;;;;;;18.30;82.30;;;;;;4977854;28;21943;-82
2024/02/29 13:26:34;;;;;;;;;;;18.00;79.00;;;;;;4963809;28;20365;-81
2024/02/29 13:29:00;;;;;;;;;;;18.20;76.00;;;;;;4955177;28;19924;-82
2024/02/29 13:31:26;;;;;;;;;;;18.10;76.20;;;;;;4987003;28;19944;-82
2024/02/29 13:33:51;;;;;;;;;;;18.00;79.90;;;;;;4964610;28;19956;-82
2024/02/29 13:36:17;;;;;;;;;;;18.50;79.70;;;;;;5019935;28;19918;-82
2024/02/29 13:38:42;;;;;;;;;;;18.40;78.50;;;;;;5002250;28;19929;-81
2024/02/29 13:41:09;;;;;;;;;;;18.10;74.90;;;;;;4968392;28;19921;-82
2024/02/29 13:43:36;;;;;;;;;;;18.20;79.10;;;;;;4955800;28;20004;-82
2024/02/29 13:46:02;;;;;;;;;;;18.50;77.70;;;;;;4982263;28;20386;-80
2024/02/29 13:48:27;;;;;;;;;;;18.10;75.90;;;;;;4982043;28;19952;-82
2024/02/29 13:50:53;;;;;;;;;;;18.20;79.10;;;;;;4982525;28;19914;-82
2024/02/29 13:53:19;;;;;;;;;;;18.30;78.00;;;;;;4962994;28;19918;-81
2024/02/29 13:55:44;;;;;;;;;;;18.20;75.50;;;;;;4978118;28;19945;-80
2024/02/29 13:58:10;;;;;;;;;;;17.60;77.20;;;;;;4977518;28;20302;-81
2024/02/29 14:00:36;;;;;;;;;;;17.70;78.70;;;;;;4950293;28;19925;-82
2024/02/29 14:03:01;;;;;;;;;;;17.40;76.70;;;;;;4965879;28;19925;-80
2024/02/29 14:05:27;;;;;;;;;;;16.80;78.00;;;;;;4964955;28;19925;-80
2024/02/29 14:07:53;;;;;;;;;;;16.70;80.20;;;;;;4980769;28;19968;-80
2024/02/29 14:10:19;;;;;;;;;;;16.30;78.50;;;;;;4981485;28;19923;-80
2024/02/29 14:12:47;;;;;;;;;;;16.50;81.00;;;;;;4948659;28;20246;-80
2024/02/29 14:15:13;;;;;;;;;;;16.30;79.40;;;;;;4964888;28;20005;-80
2024/02/29 14:17:38;;;;;;;;;;;16.00;80.10;;;;;;4949969;28;20049;-80
2024/02/29 14:20:06;;;;;;;;;;;16.10;80.80;;;;;;4946479;28;20008;-80